Time;durP1;ratioP1;P1;durP2;ratioP2;P2;SDS_P1;SDS_P2;PMS_P1;PMS_P2;Temp;Humidity;BMP_temperature;BMP_pressure;BME280_temperature;BME280_humidity;BME280_pressure;Samples;Min_cycle;Max_cycle;Signal;HPM_P1;HPM_P2
2021/12/13 07:59:31;;;;;;;19.48;15.10;;;;;;;8.64;100.00;102522.13;5254743;28;20406;-72
2021/12/13 08:02:17;;;;;;;16.23;14.48;;;;;;;8.66;100.00;102526.34;5257561;28;20033;-73
2021/12/13 08:05:08;;;;;;;18.48;12.90;;;;;;;8.68;100.00;102526.13;5251443;28;20033;-72
2021/12/13 08:07:58;;;;;;;14.48;12.60;;;;;;;8.71;100.00;102520.94;5258622;28;20033;-72
2021/12/13 08:10:35;;;;;;;15.85;12.65;;;;;;;8.71;100.00;102518.19;5258599;28;20040;-72
2021/12/13 08:13:15;;;;;;;15.32;13.05;;;;;;;8.70;100.00;102513.75;5247746;28;20048;-71
2021/12/13 08:15:51;;;;;;;15.57;13.55;;;;;;;8.72;100.00;102519.06;5256796;28;20100;-71
2021/12/13 08:18:27;;;;;;;15.35;12.98;;;;;;;8.77;100.00;102518.31;5254201;28;20048;-71
2021/12/13 08:21:24;;;;;;;17.48;12.80;;;;;;;8.79;100.00;102530.00;5244344;28;20025;-70
2021/12/13 08:24:00;;;;;;;15.00;12.63;;;;;;;8.75;100.00;102531.56;5254952;28;20029;-70
2021/12/13 08:26:41;;;;;;;15.65;13.55;;;;;;;8.77;100.00;102532.16;5257025;28;20105;-70
2021/12/13 08:29:23;;;;;;;16.67;13.90;;;;;;;8.81;100.00;102525.09;5257570;28;20441;-71
2021/12/13 08:31:56;;;;;;;16.27;13.15;;;;;;;8.84;100.00;102524.59;5252081;28;20021;-71
2021/12/13 08:34:54;;;;;;;15.18;13.48;;;;;;;8.85;100.00;102520.78;5258508;28;20052;-71
2021/12/13 08:37:36;;;;;;;18.27;14.13;;;;;;;8.84;100.00;102530.13;5249896;28;20041;-71
2021/12/13 08:40:17;;;;;;;16.60;14.20;;;;;;;8.89;100.00;102521.97;5253008;28;20112;-71
2021/12/13 08:42:51;;;;;;;15.77;12.48;;;;;;;8.87;99.80;102530.53;5251043;28;20036;-71
2021/12/13 08:45:30;;;;;;;15.50;13.32;;;;;;;8.88;99.90;102523.88;5257562;28;20052;-71
2021/12/13 08:48:13;;;;;;;13.30;11.88;;;;;;;8.87;100.00;102515.81;5248852;28;20109;-72
2021/12/13 08:50:53;;;;;;;13.88;11.85;;;;;;;8.84;99.63;102524.59;5249799;28;20083;-71
2021/12/13 08:53:29;;;;;;;16.05;13.45;;;;;;;8.87;99.64;102530.53;5254409;28;20029;-72
2021/12/13 08:56:12;;;;;;;15.75;12.93;;;;;;;8.89;99.87;102524.72;5250878;28;20079;-71
2021/12/13 08:58:58;;;;;;;19.48;15.20;;;;;;;8.91;99.25;102536.41;5256435;28;20060;-71
2021/12/13 09:01:40;;;;;;;12.43;11.15;;;;;;;8.93;99.71;102526.78;5257135;28;20477;-71
2021/12/13 09:04:23;;;;;;;12.82;11.43;;;;;;;8.95;99.25;102532.09;5257126;28;20021;-70
2021/12/13 09:06:59;;;;;;;14.38;11.60;;;;;;;8.93;98.84;102528.72;5257173;28;20032;-70
2021/12/13 09:09:32;;;;;;;14.80;12.18;;;;;;;8.99;98.73;102532.44;5248859;28;20052;-71
2021/12/13 09:12:08;;;;;;;16.42;11.75;;;;;;;8.96;98.99;102530.16;5240777;28;20056;-73
2021/12/13 09:14:43;;;;;;;13.48;12.07;;;;;;;8.95;98.17;102537.63;5243644;28;20025;-73
2021/12/13 09:17:24;;;;;;;;;;;;;;;9.04;98.44;102536.19;5243740;28;20088;-73
2021/12/13 09:20:06;;;;;;;15.20;12.15;;;;;;;8.97;97.92;102538.22;5242935;28;20376;-73
2021/12/13 09:22:39;;;;;;;11.93;10.73;;;;;;;8.97;98.19;102540.97;5243875;28;20025;-73
2021/12/13 09:25:21;;;;;;;14.20;11.65;;;;;;;8.97;98.92;102552.06;5243677;28;20033;-73
2021/12/13 09:28:13;;;;;;;16.40;12.05;;;;;;;8.98;98.72;102541.84;5240354;28;20578;-73
2021/12/13 09:31:00;;;;;;;13.57;12.20;;;;;;;8.98;98.05;102551.00;5242415;28;20030;-74
2021/12/13 09:33:37;;;;;;;12.60;11.05;;;;;;;8.97;98.08;102553.97;5242355;28;20025;-73
2021/12/13 09:36:29;;;;;;;14.73;11.50;;;;;;;8.97;97.98;102556.75;5243315;28;20030;-73
2021/12/13 09:39:07;;;;;;;17.60;14.00;;;;;;;8.96;97.52;102563.38;5243747;28;20057;-73
2021/12/13 09:42:06;;;;;;;12.95;11.50;;;;;;;8.98;98.31;102570.34;5241947;28;20057;-72
2021/12/13 09:44:49;;;;;;;11.90;10.70;;;;;;;8.99;97.87;102580.34;5242674;28;20123;-72
2021/12/13 09:47:33;;;;;;;11.80;10.10;;;;;;;8.98;97.61;102586.13;5237860;28;20123;-73
2021/12/13 09:50:20;;;;;;;13.98;10.18;;;;;;;8.99;97.94;102587.81;5243135;28;20034;-72
2021/12/13 09:53:09;;;;;;;12.20;10.13;;;;;;;8.97;98.21;102595.50;5241737;28;20024;-74
2021/12/13 09:55:47;;;;;;;10.95;9.85;;;;;;;9.01;98.18;102607.78;5242555;28;20037;-74
2021/12/13 09:58:27;;;;;;;11.38;10.02;;;;;;;8.99;97.92;102604.41;5242387;28;20045;-73
2021/12/13 10:01:07;;;;;;;12.35;9.43;;;;;;;9.00;98.10;102606.09;5241392;28;20026;-74
2021/12/13 10:04:07;;;;;;;10.77;9.73;;;;;;;8.99;97.71;102608.00;5235679;28;20025;-74
2021/12/13 10:06:43;;;;;;;13.68;10.93;;;;;;;8.99;97.56;102605.25;5239248;28;20060;-73
2021/12/13 10:09:28;;;;;;;10.43;8.85;;;;;;;9.03;97.69;102606.47;5234108;28;20108;-74
2021/12/13 10:12:04;;;;;;;10.55;7.97;;;;;;;8.97;97.70;102607.41;5240491;28;20025;-74
2021/12/13 10:14:40;;;;;;;;;;;;;;;9.09;98.08;102605.50;5242249;28;20071;-74
2021/12/13 10:17:15;;;;;;;9.20;8.02;;;;;;;8.98;97.23;102599.97;5242338;28;20367;-73
2021/12/13 10:19:55;;;;;;;9.10;7.93;;;;;;;8.96;97.20;102594.66;5240368;28;20025;-74
2021/12/13 10:22:29;;;;;;;8.52;7.63;;;;;;;8.99;97.07;102594.16;5233230;28;20056;-74
2021/12/13 10:25:15;;;;;;;7.85;7.03;;;;;;;9.01;97.37;102592.03;5242209;28;20025;-73
2021/12/13 10:27:50;;;;;;;9.95;7.70;;;;;;;8.99;96.91;102591.41;5242238;28;20105;-74
2021/12/13 10:30:28;;;;;;;9.18;7.72;;;;;;;9.07;97.15;102596.59;5239247;28;20528;-74
2021/12/13 10:33:02;;;;;;;7.90;6.95;;;;;;;9.06;96.64;102600.47;5231414;28;20032;-74
2021/12/13 10:35:39;;;;;;;8.57;7.78;;;;;;;9.06;96.21;102589.38;5241985;28;20470;-73
2021/12/13 10:38:24;;;;;;;9.75;8.73;;;;;;;9.08;96.19;102592.75;5237802;28;20033;-74
2021/12/13 10:41:00;;;;;;;11.60;10.02;;;;;;;9.06;96.00;102586.63;5242538;28;20037;-74
2021/12/13 10:43:41;;;;;;;9.55;7.75;;;;;;;9.10;96.57;102584.22;5240379;28;20035;-74
2021/12/13 10:46:18;;;;;;;8.45;7.57;;;;;;;9.03;95.87;102577.97;5236585;28;20393;-74
2021/12/13 10:48:54;;;;;;;8.27;6.97;;;;;;;9.06;96.13;102581.09;5238930;28;20044;-74
2021/12/13 10:51:34;;;;;;;8.00;7.15;;;;;;;9.10;95.88;102579.53;5241040;28;20119;-73
2021/12/13 10:54:13;;;;;;;8.50;6.93;;;;;;;9.06;96.05;102583.00;5240094;28;20503;-73
2021/12/13 10:56:48;;;;;;;8.65;7.05;;;;;;;9.11;95.18;102585.91;5239573;28;20381;-73
2021/12/13 10:59:23;;;;;;;7.38;6.65;;;;;;;9.11;95.87;102580.38;5239052;28;20053;-73
2021/12/13 11:02:00;;;;;;;8.20;6.93;;;;;;;9.09;95.84;102583.38;5241402;28;20045;-73
2021/12/13 11:04:37;;;;;;;7.75;6.78;;;;;;;9.12;95.63;102585.66;5241042;28;20029;-73
2021/12/13 11:07:12;;;;;;;7.97;6.78;;;;;;;9.09;95.44;102580.59;5239172;28;20026;-73
2021/12/13 11:09:46;;;;;;;8.25;7.45;;;;;;;9.10;95.01;102582.31;5238563;28;20033;-74
2021/12/13 11:12:23;;;;;;;7.88;6.93;;;;;;;9.12;95.13;102571.81;5240466;28;20033;-74
2021/12/13 11:14:58;;;;;;;9.90;6.63;;;;;;;9.12;94.66;102570.97;5239850;28;20408;-74
2021/12/13 11:17:33;;;;;;;7.80;7.07;;;;;;;9.13;94.35;102558.84;5241141;28;20036;-74
2021/12/13 11:20:12;;;;;;;8.15;6.78;;;;;;;9.11;94.63;102559.06;5239414;28;20041;-73
2021/12/13 11:22:46;;;;;;;7.93;7.05;;;;;;;9.10;94.52;102557.41;5241354;28;20021;-73
2021/12/13 11:25:21;;;;;;;7.15;6.43;;;;;;;9.19;94.53;102559.81;5239803;28;20033;-73
2021/12/13 11:27:52;;;;;;;8.75;6.72;;;;;;;9.19;94.81;102559.81;5238395;28;20086;-74
2021/12/13 11:30:27;;;;;;;10.23;7.28;;;;;;;9.28;94.73;102570.28;5234102;28;20022;-73
2021/12/13 11:32:59;;;;;;;5.80;5.30;;;;;;;9.32;94.59;102562.34;5240477;28;20028;-73
2021/12/13 11:36:07;;;;;;;7.00;5.95;;;;;;;9.38;94.02;102569.69;5231891;28;20022;-73
2021/12/13 11:39:09;;;;;;;8.35;6.57;;;;;;;9.45;94.17;102561.25;5240390;28;20095;-70
2021/12/13 11:41:52;;;;;;;9.63;6.75;;;;;;;9.49;93.86;102560.56;5236975;28;20037;-72
2021/12/13 11:44:26;;;;;;;6.20;5.22;;;;;;;9.51;92.92;102563.06;5232462;28;20040;-71
2021/12/13 11:47:35;;;;;;;7.03;6.03;;;;;;;9.51;92.48;102568.59;5236438;28;20048;-70
2021/12/13 11:50:24;;;;;;;8.05;5.50;;;;;;;9.43;92.21;102561.50;5233872;28;20143;-70
2021/12/13 11:53:34;;;;;;;10.60;6.10;;;;;;;9.49;92.99;102568.88;5240128;28;20026;-70
2021/12/13 11:56:43;;;;;;;7.35;6.03;;;;;;;9.60;93.64;102561.63;5239376;28;20083;-72
2021/12/13 11:59:52;;;;;;;7.82;6.28;;;;;;;9.60;92.66;102563.56;5238691;28;20045;-71
2021/12/13 12:02:41;;;;;;;7.93;6.25;;;;;;;9.54;92.99;102568.97;5227834;28;20045;-70
2021/12/13 12:05:41;;;;;;;7.03;5.70;;;;;;;9.58;92.36;102559.09;5240827;28;20104;-71
2021/12/13 12:08:43;;;;;;;7.65;5.30;;;;;;;9.61;91.63;102557.75;5240155;28;20068;-71
2021/12/13 12:11:48;;;;;;;6.35;5.30;;;;;;;9.67;93.20;102567.06;5239803;28;20029;-71
2021/12/13 12:14:24;;;;;;;6.10;5.20;;;;;;;9.66;92.30;102549.56;5239389;28;20026;-70
2021/12/13 12:17:00;;;;;;;6.80;5.20;;;;;;;9.75;91.96;102547.28;5235865;28;20097;-70
2021/12/13 12:19:34;;;;;;;5.10;4.38;;;;;;;9.56;90.98;102539.13;5239146;28;20032;-71
2021/12/13 12:22:13;;;;;;;5.85;5.05;;;;;;;9.88;91.97;102547.03;5238325;28;20112;-71
2021/12/13 12:24:58;;;;;;;7.65;5.00;;;;;;;9.75;91.60;102552.84;5237860;28;20105;-70
2021/12/13 12:27:33;;;;;;;7.05;4.68;;;;;;;9.88;92.19;102548.97;5240025;28;20125;-72
2021/12/13 12:30:11;;;;;;;6.03;5.32;;;;;;;9.76;90.37;102543.41;5233989;28;20037;-71
2021/12/13 12:32:50;;;;;;;5.57;4.97;;;;;;;9.71;90.87;102559.94;5240086;28;20529;-70
2021/12/13 12:35:29;;;;;;;4.97;4.50;;;;;;;9.79;91.09;102549.34;5234794;28;20080;-71
2021/12/13 12:38:00;;;;;;;6.28;4.78;;;;;;;9.85;91.02;102547.50;5239522;28;20539;-72
2021/12/13 12:41:06;;;;;;;6.30;5.70;;;;;;;9.84;91.41;102556.91;5237317;28;20030;-71
2021/12/13 12:43:51;;;;;;;7.18;4.70;;;;;;;9.77;90.23;102551.50;5237627;28;20481;-70
2021/12/13 12:46:22;;;;;;;6.45;4.40;;;;;;;9.94;90.08;102554.34;5243970;28;20481;-69
2021/12/13 12:49:01;;;;;;;11.00;4.72;;;;;;;9.83;90.77;102552.44;5243933;28;20028;-72
2021/12/13 12:51:33;;;;;;;6.22;4.65;;;;;;;9.79;90.18;102554.00;5239249;28;20105;-70
2021/12/13 12:54:11;;;;;;;5.55;4.80;;;;;;;9.80;90.39;102555.72;5237725;28;20554;-70
2021/12/13 12:57:04;;;;;;;6.45;5.10;;;;;;;9.78;90.94;102557.88;5240856;28;20033;-71
2021/12/13 12:59:39;;;;;;;6.82;5.50;;;;;;;9.88;90.77;102554.50;5242722;28;20037;-71
2021/12/13 13:02:16;;;;;;;7.22;4.47;;;;;;;9.78;90.33;102558.72;5243110;28;20463;-71
2021/12/13 13:04:53;;;;;;;5.82;5.03;;;;;;;9.90;90.64;102567.03;5240246;28;20037;-72
2021/12/13 13:07:37;;;;;;;6.28;5.30;;;;;;;9.83;89.68;102562.69;5244012;28;20478;-72
2021/12/13 13:13:06;;;;;;;6.97;6.10;;;;;;;9.83;89.98;102560.78;5247069;28;20099;-71
2021/12/13 13:15:44;;;;;;;6.47;5.45;;;;;;;9.93;90.43;102558.22;5243264;28;20040;-72
2021/12/13 13:18:20;;;;;;;5.78;5.15;;;;;;;9.90;90.30;102555.94;5234562;28;20079;-72
2021/12/13 13:20:54;;;;;;;;;;;;;;;9.98;90.42;102557.50;5243864;28;20104;-70
2021/12/13 13:23:34;;;;;;;5.00;4.38;;;;;;;10.03;90.64;102552.06;5237916;28;20284;-73
2021/12/13 13:26:06;;;;;;;4.30;3.90;;;;;;;9.94;89.37;102554.34;5241361;28;20128;-71
2021/12/13 13:28:42;;;;;;;5.88;4.68;;;;;;;9.90;89.12;102555.94;5243324;28;20027;-72
2021/12/13 13:31:17;;;;;;;5.55;4.63;;;;;;;9.90;89.48;102555.94;5242835;28;20076;-71
2021/12/13 13:33:53;;;;;;;6.57;4.72;;;;;;;9.90;89.42;102553.16;5241747;28;20076;-70
2021/12/13 13:36:36;;;;;;;5.82;4.15;;;;;;;10.10;89.99;102550.00;5236431;28;20466;-71
2021/12/13 13:39:09;;;;;;;7.05;4.78;;;;;;;9.95;89.49;102549.69;5242533;28;20061;-70
2021/12/13 13:41:44;;;;;;;5.25;4.72;;;;;;;9.88;89.26;102554.50;5242958;28;20109;-72
2021/12/13 13:44:19;;;;;;;9.02;5.00;;;;;;;9.91;89.79;102560.38;5239337;28;20025;-71
2021/12/13 13:47:05;;;;;;;;;;;;;;;9.99;89.74;102554.47;5237923;28;20116;-74
2021/12/13 13:49:37;;;;;;;12.32;8.85;;;;;;;9.84;88.70;102548.59;5243730;28;20463;-75
2021/12/13 13:52:22;;;;;;;16.10;9.32;;;;;;;9.87;89.54;102548.13;5238093;28;20087;-73
2021/12/13 13:55:00;;;;;;;5.93;4.65;;;;;;;9.92;89.80;102552.91;5237194;28;20048;-76
2021/12/13 13:57:38;;;;;;;19.40;12.38;;;;;;;9.98;89.38;102546.41;5242170;28;20136;-72
2021/12/13 14:00:10;;;;;;;10.35;6.72;;;;;;;9.95;89.24;102553.28;5237601;28;20034;-72
2021/12/13 14:02:41;;;;;;;24.42;13.68;;;;;;;9.87;89.02;102556.44;5236987;28;20507;-72
2021/12/13 14:05:14;;;;;;;12.32;8.15;;;;;;;9.96;89.42;102557.72;5242173;28;20156;-72
2021/12/13 14:07:46;;;;;;;7.45;6.50;;;;;;;9.92;88.81;102562.09;5241086;28;20029;-73
2021/12/13 14:10:22;;;;;;;6.82;5.03;;;;;;;10.01;88.94;102568.09;5242157;28;20472;-73
2021/12/13 14:13:04;;;;;;;9.73;5.22;;;;;;;9.91;88.85;102563.16;5240670;28;20175;-73
2021/12/13 14:15:41;;;;;;;5.30;4.78;;;;;;;9.84;88.50;102562.44;5241472;28;20395;-74
2021/12/13 14:18:27;;;;;;;5.90;4.97;;;;;;;9.92;89.11;102566.75;5240717;28;20021;-73
2021/12/13 14:21:01;;;;;;;5.85;4.68;;;;;;;9.92;88.85;102570.41;5239144;28;20455;-72
2021/12/13 14:23:37;;;;;;;6.75;5.25;;;;;;;10.06;89.40;102564.59;5242143;28;20040;-71
2021/12/13 14:26:13;;;;;;;6.13;4.68;;;;;;;9.87;88.26;102567.53;5241569;28;20535;-73
2021/12/13 14:28:50;;;;;;;;;;;;;;;10.04;89.39;102575.91;5239144;28;20030;-72
2021/12/13 14:31:32;;;;;;;5.20;4.53;;;;;;;9.97;89.20;102570.50;5242110;28;19924;-73
2021/12/13 14:34:07;;;;;;;7.10;5.40;;;;;;;9.92;89.16;102569.53;5239998;28;20564;-76
2021/12/13 14:37:08;;;;;;;5.70;4.75;;;;;;;10.09;89.49;102569.63;5237524;28;20037;-75
2021/12/13 14:39:43;;;;;;;7.82;4.72;;;;;;;10.14;88.54;102566.97;5230376;28;20057;-71
2021/12/13 14:42:24;;;;;;;7.00;5.35;;;;;;;9.99;87.90;102570.25;5239212;28;20530;-71
2021/12/13 14:45:00;;;;;;;14.80;10.38;;;;;;;9.90;88.44;102564.25;5242989;28;20036;-71
2021/12/13 14:47:39;;;;;;;5.75;4.82;;;;;;;10.02;89.10;102562.31;5241731;28;20112;-71
2021/12/13 14:50:22;;;;;;;6.30;5.00;;;;;;;9.98;88.15;102563.88;5242282;28;20061;-71
2021/12/13 14:53:01;;;;;;;6.20;4.85;;;;;;;9.88;88.55;102560.03;5237339;28;20036;-72
2021/12/13 14:55:41;;;;;;;8.20;5.18;;;;;;;9.85;87.77;102552.22;5251226;28;20018;-72
2021/12/13 14:58:20;;;;;;;7.25;5.35;;;;;;;9.83;89.09;102560.78;5252342;28;20124;-72
2021/12/13 15:01:01;;;;;;;7.40;5.38;;;;;;;9.80;88.37;102558.50;5247977;28;20024;-76
2021/12/13 15:03:38;;;;;;;7.53;5.10;;;;;;;9.78;88.36;102563.44;5246606;28;20104;-76
2021/12/13 15:06:18;;;;;;;9.23;6.47;;;;;;;9.79;88.09;102560.41;5252167;28;20052;-77
2021/12/13 15:09:00;;;;;;;8.05;5.35;;;;;;;9.78;88.95;102557.88;5233261;28;20440;-77
2021/12/13 15:11:36;;;;;;;8.93;4.78;;;;;;;9.74;87.85;102568.63;5238869;28;20030;-77
2021/12/13 15:14:12;;;;;;;10.10;4.60;;;;;;;9.76;87.80;102565.59;5242392;28;20100;-77
2021/12/13 15:16:44;;;;;;;7.40;5.18;;;;;;;9.79;88.45;102565.09;5242090;28;20060;-77
2021/12/13 15:19:19;;;;;;;7.05;5.32;;;;;;;9.78;88.15;102569.81;5241530;28;20171;-73
2021/12/13 15:21:57;;;;;;;8.73;6.72;;;;;;;9.85;88.27;102566.91;5240581;28;20428;-72
2021/12/13 15:24:33;;;;;;;6.55;4.90;;;;;;;9.75;88.26;102570.28;5240384;28;20078;-73
2021/12/13 15:27:09;;;;;;;7.90;4.57;;;;;;;9.79;88.51;102563.19;5238026;28;20029;-73
2021/12/13 15:29:42;;;;;;;6.78;4.57;;;;;;;9.77;88.54;102562.59;5241206;28;20030;-73
2021/12/13 15:32:16;;;;;;;5.22;4.55;;;;;;;9.80;87.74;102558.50;5240493;28;20477;-72
2021/12/13 15:34:56;;;;;;;6.05;4.80;;;;;;;9.77;88.40;102567.28;5234808;28;20040;-72
2021/12/13 15:37:35;;;;;;;7.80;6.10;;;;;;;9.79;87.59;102565.97;5241259;28;20034;-71
2021/12/13 15:40:31;;;;;;;6.68;4.60;;;;;;;9.88;87.83;102563.66;5233394;28;20037;-72
2021/12/13 15:43:08;;;;;;;7.57;5.95;;;;;;;9.86;87.19;102568.59;5234762;28;20029;-76
2021/12/13 15:45:47;;;;;;;7.13;4.47;;;;;;;9.93;86.99;102566.53;5239732;28;20406;-76
2021/12/13 15:51:19;;;;;;;7.05;4.13;;;;;;;9.95;86.88;102563.53;5233233;28;20038;-71
2021/12/13 15:53:54;;;;;;;6.80;4.97;;;;;;;9.94;86.68;102565.44;5237289;28;20088;-72
2021/12/13 15:56:30;;;;;;;6.38;4.50;;;;;;;9.90;86.94;102564.25;5234310;28;20041;-74
2021/12/13 15:59:10;;;;;;;12.25;7.95;;;;;;;10.05;88.00;102571.19;5235724;28;20050;-76
2021/12/13 16:01:46;;;;;;;68.63;30.52;;;;;;;9.84;86.36;102572.69;5239820;28;20041;-77
2021/12/13 16:04:27;;;;;;;67.20;29.10;;;;;;;9.93;87.04;102574.84;5234088;28;20037;-77
2021/12/13 16:07:03;;;;;;;11.48;8.65;;;;;;;9.90;85.90;102564.25;5243162;28;20457;-75
2021/12/13 16:09:42;;;;;;;7.15;5.35;;;;;;;9.97;86.34;102564.09;5239623;28;20366;-73
2021/12/13 16:12:19;;;;;;;5.38;4.88;;;;;;;9.90;85.48;102564.25;5240264;28;20465;-81
2021/12/13 16:14:55;;;;;;;8.85;4.85;;;;;;;9.90;85.37;102567.03;5239607;28;20377;-71
2021/12/13 16:17:31;;;;;;;7.05;4.68;;;;;;;9.87;86.22;102566.66;5238990;28;20061;-76
2021/12/13 16:20:08;;;;;;;6.32;5.35;;;;;;;9.84;85.66;102561.59;5240880;28;20032;-78
2021/12/13 16:22:53;;;;;;;7.47;5.95;;;;;;;9.87;86.45;102572.19;5244396;28;20551;-75
2021/12/13 16:25:30;;;;;;;9.70;6.70;;;;;;;9.82;85.99;102572.06;5244658;28;20406;-74
2021/12/13 16:28:22;;;;;;;8.48;6.75;;;;;;;9.83;86.28;102569.09;5243338;28;20311;-71
2021/12/13 16:31:10;;;;;;;6.63;5.82;;;;;;;9.76;85.20;102568.34;5244428;28;20021;-72
2021/12/13 16:33:47;;;;;;;6.05;5.22;;;;;;;9.74;85.79;102576.94;5241250;28;20029;-74
2021/12/13 16:36:33;;;;;;;5.07;4.35;;;;;;;9.71;85.96;102584.88;5244907;28;20022;-77
2021/12/13 16:39:13;;;;;;;7.65;5.10;;;;;;;9.65;85.35;102572.00;5234709;28;20049;-76
2021/12/13 16:41:48;;;;;;;7.22;4.57;;;;;;;9.62;85.00;102569.72;5244243;28;20108;-76
2021/12/13 16:44:23;;;;;;;6.22;4.45;;;;;;;9.61;85.50;102568.00;5244532;28;20033;-75
2021/12/13 16:47:02;;;;;;;7.70;6.60;;;;;;;9.64;84.81;102568.38;5244174;28;20063;-75
2021/12/13 16:49:36;;;;;;;7.45;5.18;;;;;;;9.61;84.41;102568.00;5238844;28;20473;-76
2021/12/13 16:52:12;;;;;;;10.98;6.80;;;;;;;9.60;84.65;102569.94;5243361;28;20034;-76
2021/12/13 16:54:48;;;;;;;5.35;4.80;;;;;;;9.58;85.00;102569.34;5235742;28;20108;-76
2021/12/13 16:57:24;;;;;;;9.20;5.43;;;;;;;9.57;84.96;102575.97;5240050;28;20045;-76
2021/12/13 17:00:01;;;;;;;8.07;5.82;;;;;;;9.54;85.26;102568.97;5242581;28;20021;-76
2021/12/13 17:02:32;;;;;;;6.78;5.07;;;;;;;9.53;85.22;102572.81;5241805;28;20037;-76
2021/12/13 17:05:10;;;;;;;7.40;4.68;;;;;;;9.50;84.92;102578.00;5244391;28;20063;-75
2021/12/13 17:07:47;;;;;;;6.43;4.72;;;;;;;9.49;85.20;102574.41;5242629;28;20104;-74
2021/12/13 17:10:32;;;;;;;5.03;4.30;;;;;;;9.50;84.99;102570.53;5236971;28;20037;-75
2021/12/13 17:13:11;;;;;;;4.68;4.10;;;;;;;9.48;84.59;102575.47;5243480;28;20089;-75
2021/12/13 17:15:55;;;;;;;7.82;5.65;;;;;;;9.49;84.46;102562.47;5235732;28;20485;-75
2021/12/13 17:18:39;;;;;;;9.50;7.70;;;;;;;9.49;85.27;102565.25;5238328;28;20033;-75
2021/12/13 17:21:19;;;;;;;5.85;4.85;;;;;;;9.46;84.87;102561.03;5241252;28;20029;-77
2021/12/13 17:24:27;;;;;;;7.00;4.45;;;;;;;9.51;84.53;102575.00;5240982;28;20114;-74
2021/12/13 17:27:15;;;;;;;5.88;5.05;;;;;;;9.48;84.26;102574.63;5234411;28;20049;-75
2021/12/13 17:30:00;;;;;;;7.43;6.15;;;;;;;9.50;84.79;102581.63;5237856;28;20025;-75
